createdAt,value
2022-12-05T00:00:46.758Z,8.73
2022-12-05T00:03:17.269Z,7.60
2022-12-05T00:05:50.009Z,8.80
2022-12-05T00:08:20.319Z,9.60
2022-12-05T00:10:50.285Z,8.30
2022-12-05T00:13:20.470Z,8.20
2022-12-05T00:15:50.436Z,8.80
2022-12-05T00:18:20.644Z,8.73
2022-12-05T00:20:53.219Z,9.47
2022-12-05T00:23:24.363Z,7.93
2022-12-05T00:25:54.332Z,9.00
2022-12-05T00:28:25.131Z,7.40
2022-12-05T00:30:55.094Z,6.93
2022-12-05T00:33:25.510Z,7.20
2022-12-05T00:35:58.060Z,7.50
2022-12-05T00:38:28.928Z,7.93
2022-12-05T00:40:58.880Z,7.90
2022-12-05T00:43:29.249Z,8.10
2022-12-05T00:45:59.303Z,8.40
2022-12-05T00:48:29.783Z,6.67
2022-12-05T00:51:07.125Z,8.07
2022-12-05T00:53:38.096Z,7.80
2022-12-05T00:56:10.876Z,9.13
2022-12-05T00:58:41.798Z,6.60
2022-12-05T01:01:13.501Z,8.07
2022-12-05T01:03:44.757Z,6.97
2022-12-05T01:06:18.730Z,7.80
2022-12-05T01:08:49.121Z,7.87
2022-12-05T01:11:21.367Z,8.10
2022-12-05T01:13:52.169Z,7.67
2022-12-05T01:16:27.108Z,6.80
2022-12-05T01:18:58.404Z,6.90
2022-12-05T01:21:31.069Z,7.40
2022-12-05T01:24:01.353Z,7.40
2022-12-05T01:26:31.272Z,6.87
2022-12-05T01:29:01.912Z,7.40
2022-12-05T01:31:33.977Z,6.73
2022-12-05T01:34:06.470Z,6.00
2022-12-05T01:36:39.475Z,7.30
2022-12-05T01:39:11.620Z,7.10
2022-12-05T01:41:44.226Z,6.93
2022-12-05T01:44:44.259Z,7.97
2022-12-05T01:47:14.663Z,6.80
2022-12-05T01:49:46.378Z,7.43
2022-12-05T01:52:23.137Z,5.47
2022-12-05T01:54:55.007Z,6.27
2022-12-05T01:57:27.154Z,7.33
2022-12-05T02:00:01.450Z,6.13
2022-12-05T02:02:32.467Z,6.30
2022-12-05T02:05:06.185Z,6.73
2022-12-05T02:07:43.791Z,6.43
2022-12-05T02:10:14.516Z,7.73
2022-12-05T02:12:46.816Z,6.73
2022-12-05T02:15:39.325Z,7.00
2022-12-05T02:18:26.320Z,6.63
2022-12-05T02:21:12.350Z,6.30
2022-12-05T02:24:03.170Z,7.00
2022-12-05T02:26:59.425Z,6.50
2022-12-05T02:29:54.753Z,7.10
2022-12-05T02:32:39.054Z,6.23
2022-12-05T02:35:18.627Z,6.10
2022-12-05T02:37:57.278Z,5.43
2022-12-05T02:40:32.784Z,5.70
2022-12-05T02:43:06.691Z,5.50
2022-12-05T02:45:40.174Z,5.70
2022-12-05T02:48:15.838Z,6.30
2022-12-05T02:50:46.470Z,5.90
2022-12-05T02:53:20.207Z,5.73
2022-12-05T02:55:51.003Z,5.50
2022-12-05T02:58:28.404Z,5.40
2022-12-05T03:01:01.057Z,5.20
2022-12-05T03:03:34.710Z,5.33
2022-12-05T03:06:09.558Z,5.40
2022-12-05T03:08:45.510Z,5.10
2022-12-05T03:11:16.160Z,5.67
2022-12-05T03:13:52.308Z,5.17
2022-12-05T03:16:28.807Z,5.33
2022-12-05T03:19:09.797Z,5.83
2022-12-05T03:21:43.929Z,5.97
2022-12-05T03:24:17.874Z,6.53
2022-12-05T03:26:58.301Z,6.77
2022-12-05T03:29:36.417Z,4.83
2022-12-05T03:32:11.997Z,5.30
2022-12-05T03:35:04.427Z,5.47
2022-12-05T03:37:49.658Z,4.57
2022-12-05T03:40:30.841Z,4.57
2022-12-05T03:43:09.546Z,6.70
2022-12-05T03:45:45.161Z,4.20
2022-12-05T03:48:22.636Z,4.67
2022-12-05T03:50:57.051Z,3.90
2022-12-05T03:53:30.635Z,4.37
2022-12-05T03:56:06.205Z,4.67
2022-12-05T03:58:43.098Z,4.00
2022-12-05T04:01:14.876Z,3.87
2022-12-05T04:03:52.143Z,4.53
2022-12-05T04:06:28.527Z,3.80
2022-12-05T04:09:02.971Z,4.13
2022-12-05T04:11:37.008Z,3.60
2022-12-05T04:14:12.058Z,4.10
2022-12-05T04:16:58.648Z,3.70
2022-12-05T04:19:54.275Z,3.30
2022-12-05T04:22:25.476Z,3.20
2022-12-05T04:25:10.253Z,3.00
2022-12-05T04:27:45.985Z,3.37
2022-12-05T04:30:20.408Z,2.87
2022-12-05T04:32:55.307Z,2.90
2022-12-05T04:35:30.249Z,3.13
2022-12-05T04:38:08.152Z,3.33
2022-12-05T04:40:43.619Z,3.10
2022-12-05T04:43:15.487Z,3.60
2022-12-05T04:45:47.919Z,4.00
2022-12-05T04:48:20.376Z,4.03
2022-12-05T04:50:52.623Z,4.17
2022-12-05T04:53:26.428Z,3.53
2022-12-05T04:56:01.149Z,2.83
2022-12-05T04:58:32.699Z,3.03
2022-12-05T05:01:08.119Z,3.20
2022-12-05T05:03:42.506Z,3.23
2022-12-05T05:06:14.734Z,3.10
2022-12-05T05:08:55.245Z,2.60
2022-12-05T05:11:26.838Z,2.33
2022-12-05T05:13:57.621Z,2.70
2022-12-05T05:16:29.922Z,2.63
2022-12-05T05:19:00.839Z,3.17
2022-12-05T05:21:32.343Z,2.50
2022-12-05T05:24:07.165Z,2.37
2022-12-05T05:26:39.475Z,2.70
2022-12-05T05:29:10.993Z,2.80
2022-12-05T05:31:42.029Z,2.93
2022-12-05T05:34:16.099Z,3.10
2022-12-05T05:36:46.623Z,2.97
2022-12-05T05:39:27.876Z,2.93
2022-12-05T05:41:57.865Z,2.80
2022-12-05T05:44:28.155Z,2.70
2022-12-05T05:46:58.129Z,2.53
2022-12-05T05:49:28.947Z,2.70
2022-12-05T05:51:58.866Z,3.10
2022-12-05T05:54:32.100Z,2.50
2022-12-05T05:57:02.042Z,2.67
2022-12-05T05:59:32.780Z,2.40
2022-12-05T06:02:02.715Z,2.57
2022-12-05T06:04:33.309Z,2.83
2022-12-05T06:07:03.336Z,2.60
2022-12-05T06:09:37.021Z,3.20
2022-12-05T06:12:07.596Z,2.30
2022-12-05T06:14:38.213Z,2.13
2022-12-05T06:17:08.145Z,2.57
2022-12-05T06:19:38.144Z,3.50
2022-12-05T06:22:08.324Z,2.90
2022-12-05T06:24:41.293Z,2.73
2022-12-05T06:27:11.694Z,2.83
2022-12-05T06:29:43.242Z,3.10
2022-12-05T06:32:13.279Z,3.60
2022-12-05T06:34:44.105Z,3.30
2022-12-05T06:37:14.121Z,4.07
2022-12-05T06:39:47.914Z,3.07
2022-12-05T06:42:17.822Z,3.27
2022-12-05T06:44:48.124Z,3.40
2022-12-05T06:47:18.096Z,2.83
2022-12-05T06:49:49.188Z,3.20
2022-12-05T06:52:19.128Z,2.63
2022-12-05T06:54:52.393Z,2.40
2022-12-05T06:57:22.410Z,2.43
2022-12-05T07:00:12.641Z,2.80
2022-12-05T07:02:41.995Z,2.63
2022-12-05T07:05:12.745Z,2.70
2022-12-05T07:07:42.774Z,2.60
2022-12-05T07:10:15.801Z,2.53
2022-12-05T07:12:45.766Z,2.50
2022-12-05T07:15:16.440Z,2.30
2022-12-05T07:17:46.693Z,2.60
2022-12-05T07:20:18.024Z,2.27
2022-12-05T07:22:48.480Z,2.73
2022-12-05T07:25:22.585Z,2.40
2022-12-05T07:27:52.579Z,3.00
2022-12-05T07:30:23.095Z,2.37
2022-12-05T07:32:53.350Z,2.40
2022-12-05T07:35:24.085Z,2.40
2022-12-05T07:37:54.038Z,2.47
2022-12-05T07:40:27.715Z,2.70
2022-12-05T07:42:57.849Z,2.87
2022-12-05T07:45:27.879Z,3.10
2022-12-05T07:47:57.882Z,3.60
2022-12-05T07:50:28.218Z,3.20
2022-12-05T07:52:59.249Z,3.17
2022-12-05T07:55:32.851Z,3.20
2022-12-05T07:58:02.769Z,3.33
2022-12-05T08:00:33.275Z,3.97
2022-12-05T08:03:05.416Z,3.70
2022-12-05T08:05:38.149Z,3.80
2022-12-05T08:08:08.831Z,3.50
2022-12-05T08:10:41.609Z,3.20
2022-12-05T08:13:14.363Z,3.37
2022-12-05T08:15:44.661Z,4.93
2022-12-05T08:18:14.698Z,6.00
2022-12-05T08:20:44.877Z,5.47
2022-12-05T08:23:14.852Z,2.47
2022-12-05T08:25:47.897Z,3.43
2022-12-05T08:28:17.885Z,2.97
2022-12-05T08:30:48.291Z,3.00
2022-12-05T08:33:18.279Z,2.50
2022-12-05T08:35:48.556Z,2.60
2022-12-05T08:38:20.355Z,3.40
2022-12-05T08:40:56.501Z,5.43
2022-12-05T08:43:29.231Z,5.47
2022-12-05T08:46:00.571Z,6.30
2022-12-05T08:48:33.871Z,2.90
2022-12-05T08:51:10.483Z,2.70
2022-12-05T08:53:45.098Z,3.20
2022-12-05T08:56:25.113Z,2.80
2022-12-05T08:59:04.963Z,3.37
2022-12-05T09:01:39.695Z,3.10
2022-12-05T09:04:12.463Z,3.90
2022-12-05T09:06:43.353Z,2.67
2022-12-05T09:09:14.974Z,2.73
2022-12-05T09:11:51.361Z,2.90
2022-12-05T09:14:21.572Z,2.63
2022-12-05T09:16:52.245Z,3.33
2022-12-05T09:19:25.085Z,4.90
2022-12-05T09:21:56.700Z,6.80
2022-12-05T09:24:27.784Z,9.07
2022-12-05T09:27:01.174Z,7.13
2022-12-05T09:29:34.654Z,3.87
2022-12-05T09:32:05.029Z,3.60
2022-12-05T09:34:35.213Z,3.60
2022-12-05T09:37:30.832Z,3.70
2022-12-05T09:39:57.071Z,3.17
2022-12-05T09:42:42.634Z,4.57
2022-12-05T09:45:25.113Z,3.67
2022-12-05T09:48:03.151Z,3.83
2022-12-05T09:50:37.786Z,2.70
2022-12-05T09:53:13.367Z,3.00
2022-12-05T09:55:56.064Z,3.03
2022-12-05T09:58:40.603Z,2.70
2022-12-05T10:01:31.590Z,3.40
2022-12-05T10:04:17.695Z,3.27
2022-12-05T10:06:57.403Z,2.90
2022-12-05T10:09:44.063Z,2.83
2022-12-05T10:12:23.411Z,4.27
2022-12-05T10:15:05.248Z,4.10
2022-12-05T10:17:38.861Z,9.07
2022-12-05T10:20:16.566Z,9.80
2022-12-05T10:22:51.269Z,10.20
2022-12-05T10:25:23.760Z,9.80
2022-12-05T10:27:56.589Z,11.90
2022-12-05T10:30:32.903Z,11.33
2022-12-05T10:33:09.559Z,11.90
2022-12-05T10:35:41.567Z,9.00
2022-12-05T10:38:17.237Z,8.00
2022-12-05T10:40:53.450Z,8.53
2022-12-05T10:43:28.780Z,5.53
2022-12-05T10:46:03.022Z,6.13
2022-12-05T10:48:34.278Z,6.33
2022-12-05T10:51:04.393Z,10.80
2022-12-05T10:53:42.358Z,11.60
2022-12-05T10:56:40.547Z,7.13
2022-12-05T10:59:12.057Z,11.00
2022-12-05T11:01:50.431Z,15.03
2022-12-05T11:04:25.479Z,13.60
2022-12-05T11:06:59.485Z,15.83
2022-12-05T11:09:31.854Z,25.43
2022-12-05T11:12:18.736Z,22.83
2022-12-05T11:15:08.459Z,20.13
2022-12-05T11:17:43.041Z,23.53
2022-12-05T11:20:42.218Z,13.23
2022-12-05T11:23:27.501Z,5.60
2022-12-05T11:25:58.955Z,12.57
2022-12-05T11:28:35.479Z,7.63
2022-12-05T11:31:09.189Z,4.63
2022-12-05T11:33:42.773Z,6.70
2022-12-05T11:36:21.524Z,5.60
2022-12-05T11:38:51.948Z,5.47
2022-12-05T11:41:38.196Z,5.07
2022-12-05T11:44:22.207Z,7.10
2022-12-05T11:47:04.476Z,6.77
2022-12-05T11:49:59.623Z,4.70
2022-12-05T11:52:41.996Z,4.87
2022-12-05T11:55:18.885Z,6.20
2022-12-05T11:58:14.065Z,5.47
2022-12-05T12:00:54.922Z,8.53
2022-12-05T12:03:50.618Z,7.87
2022-12-05T12:06:43.043Z,9.03
2022-12-05T12:09:26.505Z,12.37
2022-12-05T12:12:05.900Z,10.03
2022-12-05T12:14:43.476Z,17.80
2022-12-05T12:17:24.545Z,14.83
2022-12-05T12:20:10.634Z,7.63
2022-12-05T12:22:58.313Z,11.57
2022-12-05T12:25:42.155Z,13.67
2022-12-05T12:28:32.446Z,20.60
2022-12-05T12:31:22.285Z,20.00
2022-12-05T12:33:58.323Z,31.10
2022-12-05T12:36:32.199Z,33.47
2022-12-05T12:39:29.375Z,24.23
2022-12-05T12:42:21.107Z,30.47
2022-12-05T12:45:24.908Z,27.37
2022-12-05T12:48:28.958Z,32.53
2022-12-05T12:51:01.398Z,46.20
2022-12-05T12:53:55.426Z,33.03
2022-12-05T12:56:39.090Z,40.30
2022-12-05T12:59:31.094Z,40.83
2022-12-05T13:02:07.874Z,28.10
2022-12-05T13:04:45.434Z,38.30
2022-12-05T13:07:20.520Z,53.07
2022-12-05T13:09:55.256Z,47.60
2022-12-05T13:12:32.304Z,41.30
2022-12-05T13:15:07.559Z,38.17
2022-12-05T13:17:38.184Z,37.77
2022-12-05T13:20:17.082Z,52.00
2022-12-05T13:22:49.074Z,59.03
2022-12-05T13:25:20.167Z,49.53
2022-12-05T13:28:03.158Z,41.50
2022-12-05T13:30:53.878Z,52.50
2022-12-05T13:33:28.310Z,30.50
2022-12-05T13:36:17.040Z,38.80
2022-12-05T13:39:00.643Z,47.87
2022-12-05T13:41:56.298Z,42.93
2022-12-05T13:44:38.276Z,48.80
2022-12-05T13:47:10.604Z,58.40
2022-12-05T13:49:50.591Z,72.33
2022-12-05T13:52:26.704Z,62.43
2022-12-05T13:55:01.125Z,66.23
2022-12-05T13:57:56.080Z,42.43
2022-12-05T14:00:37.227Z,66.03
2022-12-05T14:03:18.260Z,43.60
2022-12-05T14:05:54.140Z,57.43
2022-12-05T14:08:53.943Z,58.37
2022-12-05T14:11:24.822Z,37.40
2022-12-05T14:14:00.761Z,52.67
2022-12-05T14:16:50.222Z,51.17
2022-12-05T14:19:55.673Z,41.30
2022-12-05T14:22:59.793Z,29.97
2022-12-05T14:25:59.574Z,59.20
2022-12-05T14:29:04.120Z,24.87
2022-12-05T14:31:52.532Z,46.73
2022-12-05T14:34:26.851Z,48.10
2022-12-05T14:37:00.836Z,32.13
2022-12-05T14:39:42.529Z,25.10
2022-12-05T14:42:30.455Z,43.30
2022-12-05T14:45:04.263Z,39.33
2022-12-05T14:47:39.051Z,30.30
2022-12-05T14:50:31.606Z,25.13
2022-12-05T14:53:20.376Z,36.93
2022-12-05T14:55:56.594Z,35.90
2022-12-05T14:58:38.500Z,47.30
2022-12-05T15:01:14.917Z,34.20
2022-12-05T15:04:15.901Z,40.77
2022-12-05T15:06:52.508Z,29.13
2022-12-05T15:09:47.167Z,33.23
2022-12-05T15:12:24.486Z,27.10
2022-12-05T15:15:04.032Z,25.73
2022-12-05T15:17:41.291Z,30.53
2022-12-05T15:20:21.826Z,38.33
2022-12-05T15:22:52.183Z,18.70
2022-12-05T15:25:27.538Z,31.27
2022-12-05T15:28:04.560Z,21.37
2022-12-05T15:30:39.818Z,38.53
2022-12-05T15:33:15.869Z,16.73
2022-12-05T15:35:51.482Z,37.30
2022-12-05T15:38:28.148Z,39.33
2022-12-05T15:40:58.602Z,21.33
2022-12-05T15:43:33.963Z,23.43
2022-12-05T15:46:12.375Z,24.30
2022-12-05T15:48:45.156Z,41.33
2022-12-05T15:51:18.378Z,41.03
2022-12-05T15:53:53.727Z,35.27
2022-12-05T15:56:27.890Z,36.60
2022-12-05T15:59:02.762Z,33.97
2022-12-05T16:01:34.856Z,38.73
2022-12-05T16:04:13.350Z,38.87
2022-12-05T16:06:50.235Z,46.40
2022-12-05T16:09:25.266Z,30.57
2022-12-05T16:11:57.993Z,48.03
2022-12-05T16:17:24.413Z,22.83
2022-12-05T16:19:59.172Z,41.20
2022-12-05T16:22:34.263Z,41.80
2022-12-05T16:25:07.181Z,35.33
2022-12-05T16:27:39.685Z,48.50
2022-12-05T16:30:13.403Z,49.93
2022-12-05T16:32:49.915Z,60.67
2022-12-05T16:35:39.584Z,42.07
2022-12-05T16:38:23.644Z,34.50
2022-12-05T16:41:00.323Z,25.70
2022-12-05T16:43:46.622Z,63.90
2022-12-05T16:46:49.792Z,24.60
2022-12-05T16:49:38.790Z,66.97
2022-12-05T16:52:17.505Z,35.63
2022-12-05T16:54:58.413Z,33.23
2022-12-05T16:57:29.996Z,44.73
2022-12-05T17:00:06.602Z,38.43
2022-12-05T17:02:37.445Z,43.43
2022-12-05T17:05:15.418Z,45.60
2022-12-05T17:07:49.521Z,57.43
2022-12-05T17:10:22.392Z,21.73
2022-12-05T17:12:53.084Z,35.03
2022-12-05T17:15:33.202Z,50.37
2022-12-05T17:18:14.524Z,47.03
2022-12-05T17:20:51.295Z,22.70
2022-12-05T17:23:44.549Z,35.10
2022-12-05T17:26:23.277Z,40.10
2022-12-05T17:28:54.146Z,38.07
2022-12-05T17:31:26.253Z,54.20
2022-12-05T17:33:57.835Z,49.60
2022-12-05T17:36:27.758Z,36.73
2022-12-05T17:38:57.910Z,58.33
2022-12-05T17:41:30.489Z,50.97
2022-12-05T17:44:00.754Z,59.63
2022-12-05T17:46:33.531Z,52.50
2022-12-05T17:49:04.312Z,42.50
2022-12-05T17:51:52.537Z,29.87
2022-12-05T17:54:34.272Z,33.43
2022-12-05T17:57:15.890Z,37.63
2022-12-05T17:59:46.390Z,45.17
2022-12-05T18:02:17.672Z,43.30
2022-12-05T18:04:47.876Z,52.43
2022-12-05T18:07:18.530Z,36.90
2022-12-05T18:09:49.641Z,49.33
2022-12-05T18:12:22.186Z,38.67
2022-12-05T18:14:52.214Z,48.87
2022-12-05T18:17:24.953Z,21.80
2022-12-05T18:19:56.194Z,31.67
2022-12-05T18:22:26.957Z,15.00
2022-12-05T18:24:58.561Z,61.67
2022-12-05T18:27:32.702Z,23.30
2022-12-05T18:30:03.747Z,39.70
2022-12-05T18:32:33.906Z,39.17
2022-12-05T18:35:09.998Z,16.00
2022-12-05T18:37:43.212Z,32.17
2022-12-05T18:40:15.767Z,16.77
2022-12-05T18:42:48.382Z,47.53
2022-12-05T18:45:19.398Z,40.13
2022-12-05T18:47:49.316Z,52.73
2022-12-05T18:50:19.406Z,54.70
2022-12-05T18:52:49.383Z,50.50
2022-12-05T18:55:31.150Z,40.20
2022-12-05T18:58:12.772Z,45.20
2022-12-05T19:00:43.402Z,41.60
2022-12-05T19:03:13.371Z,47.80
2022-12-05T19:05:43.454Z,39.87
2022-12-05T19:08:13.540Z,23.00
2022-12-05T19:10:43.904Z,46.33
2022-12-05T19:13:19.733Z,48.20
2022-12-05T19:15:50.139Z,40.80
2022-12-05T19:18:20.053Z,26.90
2022-12-05T19:20:54.158Z,37.23
2022-12-05T19:23:24.219Z,44.70
2022-12-05T19:25:57.843Z,41.20
2022-12-05T19:28:30.840Z,40.80
2022-12-05T19:31:05.929Z,41.07
2022-12-05T19:33:38.154Z,43.27
2022-12-05T19:36:11.442Z,47.23
2022-12-05T19:38:43.067Z,40.80
2022-12-05T19:41:15.737Z,33.57
2022-12-05T19:43:50.013Z,37.73
2022-12-05T19:46:24.996Z,49.90
2022-12-05T19:48:56.678Z,28.83
2022-12-05T19:51:26.857Z,35.03
2022-12-05T19:53:57.167Z,35.80
2022-12-05T19:56:28.844Z,32.23
2022-12-05T19:59:02.786Z,33.30
2022-12-05T20:01:33.907Z,23.63
2022-12-05T20:04:06.835Z,28.37
2022-12-05T20:06:39.113Z,30.73
2022-12-05T20:09:10.522Z,27.13
2022-12-05T20:11:42.203Z,30.40
2022-12-05T20:14:16.973Z,30.53
2022-12-05T20:16:47.307Z,27.43
2022-12-05T20:19:17.897Z,22.23
2022-12-05T20:21:47.864Z,30.90
2022-12-05T20:24:17.932Z,22.43
2022-12-05T20:26:48.143Z,33.80
2022-12-05T20:29:21.143Z,19.03
2022-12-05T20:31:56.881Z,25.60
2022-12-05T20:34:28.184Z,23.63
2022-12-05T20:39:39.930Z,25.53
2022-12-05T20:42:09.962Z,18.93
2022-12-05T20:44:43.351Z,13.70
2022-12-05T20:47:13.599Z,11.20
2022-12-05T20:49:44.384Z,11.67
2022-12-05T20:52:14.459Z,11.93
2022-12-05T20:54:45.095Z,14.20
2022-12-05T20:57:15.507Z,13.83
2022-12-05T20:59:48.858Z,7.97
2022-12-05T21:02:18.913Z,12.47
2022-12-05T21:04:50.051Z,14.33
2022-12-05T21:07:20.013Z,9.00
2022-12-05T21:09:50.589Z,9.17
2022-12-05T21:12:21.208Z,8.90
2022-12-05T21:14:54.628Z,12.90
2022-12-05T21:17:24.997Z,9.40
2022-12-05T21:19:55.335Z,13.93
2022-12-05T21:22:25.728Z,16.10
2022-12-05T21:24:57.352Z,22.50
2022-12-05T21:27:27.371Z,28.73
2022-12-05T21:30:01.840Z,19.00
2022-12-05T21:32:32.902Z,31.83
2022-12-05T21:35:04.034Z,31.97
2022-12-05T21:37:35.202Z,31.13
2022-12-05T21:40:06.737Z,26.30
2022-12-05T21:42:39.042Z,39.33
2022-12-05T21:45:15.351Z,31.93
2022-12-05T21:47:47.354Z,37.17
2022-12-05T21:50:18.578Z,23.77
2022-12-05T21:52:49.155Z,30.50
2022-12-05T21:55:20.944Z,37.23
2022-12-05T21:57:51.426Z,32.60
2022-12-05T22:00:25.120Z,23.90
2022-12-05T22:02:57.067Z,33.13
2022-12-05T22:05:28.863Z,31.10
2022-12-05T22:08:03.584Z,31.40
2022-12-05T22:10:37.675Z,34.43
2022-12-05T22:13:09.070Z,33.90
2022-12-05T22:15:43.182Z,31.50
2022-12-05T22:18:15.597Z,20.90
2022-12-05T22:20:47.058Z,14.90
2022-12-05T22:23:18.009Z,25.30
2022-12-05T22:26:01.857Z,27.80
2022-12-05T22:28:33.344Z,26.97
2022-12-05T22:31:09.008Z,21.37
2022-12-05T22:33:41.055Z,27.57
2022-12-05T22:36:14.548Z,19.20
2022-12-05T22:38:47.546Z,25.70
2022-12-05T22:41:23.100Z,25.80
2022-12-05T22:43:58.481Z,25.10
2022-12-05T22:46:31.967Z,17.90
2022-12-05T22:49:03.509Z,20.00
2022-12-05T22:51:34.873Z,24.00
2022-12-05T22:54:06.411Z,24.80
2022-12-05T22:56:37.011Z,22.13
2022-12-05T22:59:12.961Z,29.00
2022-12-05T23:01:48.843Z,25.47
2022-12-05T23:04:20.366Z,21.30
2022-12-05T23:06:50.960Z,20.53
2022-12-05T23:09:22.307Z,16.67
2022-12-05T23:11:53.320Z,22.80
2022-12-05T23:14:24.287Z,19.57
2022-12-05T23:16:58.077Z,12.27
2022-12-05T23:19:29.047Z,26.70
2022-12-05T23:21:59.218Z,24.70
2022-12-05T23:24:30.448Z,18.00
2022-12-05T23:27:02.008Z,24.10
2022-12-05T23:29:33.030Z,16.60
2022-12-05T23:32:05.742Z,22.30
2022-12-05T23:34:38.049Z,21.40
2022-12-05T23:37:08.833Z,16.87
2022-12-05T23:39:40.213Z,23.50
2022-12-05T23:42:15.191Z,24.47
2022-12-05T23:44:46.918Z,15.37
2022-12-05T23:47:20.213Z,18.90
2022-12-05T23:49:50.913Z,12.40
2022-12-05T23:52:21.316Z,20.00
2022-12-05T23:54:53.026Z,13.60
2022-12-05T23:57:23.149Z,17.53
2022-12-05T23:59:54.058Z,17.10
